sensor_id;sensor_type;location;lat;lon;timestamp;temperature;humidity
52189;DHT22;38162;45.926;13.608;2023-02-15T00:00:15;6.30;78.50
52189;DHT22;38162;45.926;13.608;2023-02-15T00:02:41;6.30;78.30
52189;DHT22;38162;45.926;13.608;2023-02-15T00:05:08;6.30;78.40
52189;DHT22;38162;45.926;13.608;2023-02-15T00:07:33;6.30;78.10
52189;DHT22;38162;45.926;13.608;2023-02-15T00:09:59;6.30;77.90
52189;DHT22;38162;45.926;13.608;2023-02-15T00:12:25;6.30;78.10
52189;DHT22;38162;45.926;13.608;2023-02-15T00:14:50;6.40;78.30
52189;DHT22;38162;45.926;13.608;2023-02-15T00:17:16;6.40;77.80
52189;DHT22;38162;45.926;13.608;2023-02-15T00:19:42;6.40;77.50
52189;DHT22;38162;45.926;13.608;2023-02-15T00:22:07;6.40;77.40
52189;DHT22;38162;45.926;13.608;2023-02-15T00:24:33;6.40;77.00
52189;DHT22;38162;45.926;13.608;2023-02-15T00:26:59;6.40;76.50
52189;DHT22;38162;45.926;13.608;2023-02-15T00:29:25;6.40;76.40
52189;DHT22;38162;45.926;13.608;2023-02-15T00:31:51;6.40;76.50
52189;DHT22;38162;45.926;13.608;2023-02-15T00:34:22;6.40;76.50
52189;DHT22;38162;45.926;13.608;2023-02-15T00:36:49;6.30;76.40
52189;DHT22;38162;45.926;13.608;2023-02-15T00:39:16;6.30;76.70
52189;DHT22;38162;45.926;13.608;2023-02-15T00:41:41;6.20;76.70
52189;DHT22;38162;45.926;13.608;2023-02-15T00:44:08;6.20;76.70
52189;DHT22;38162;45.926;13.608;2023-02-15T00:46:34;6.20;76.80
52189;DHT22;38162;45.926;13.608;2023-02-15T00:49:00;6.20;76.70
52189;DHT22;38162;45.926;13.608;2023-02-15T00:51:26;6.20;76.70
52189;DHT22;38162;45.926;13.608;2023-02-15T00:53:51;6.10;76.60
52189;DHT22;38162;45.926;13.608;2023-02-15T00:56:17;6.10;76.70
52189;DHT22;38162;45.926;13.608;2023-02-15T00:58:43;6.10;76.70
52189;DHT22;38162;45.926;13.608;2023-02-15T01:01:14;6.10;76.70
52189;DHT22;38162;45.926;13.608;2023-02-15T01:03:41;6.20;77.00
52189;DHT22;38162;45.926;13.608;2023-02-15T01:06:11;6.20;76.40
52189;DHT22;38162;45.926;13.608;2023-02-15T01:08:37;6.30;76.10
52189;DHT22;38162;45.926;13.608;2023-02-15T01:11:11;6.30;76.00
52189;DHT22;38162;45.926;13.608;2023-02-15T01:13:37;6.40;75.70
52189;DHT22;38162;45.926;13.608;2023-02-15T01:16:03;6.30;75.60
52189;DHT22;38162;45.926;13.608;2023-02-15T01:18:30;6.30;75.50
52189;DHT22;38162;45.926;13.608;2023-02-15T01:20:56;6.20;75.60
52189;DHT22;38162;45.926;13.608;2023-02-15T01:23:23;6.20;75.80
52189;DHT22;38162;45.926;13.608;2023-02-15T01:25:48;6.20;75.80
52189;DHT22;38162;45.926;13.608;2023-02-15T01:28:14;6.10;76.00
52189;DHT22;38162;45.926;13.608;2023-02-15T01:30:39;6.10;76.10
52189;DHT22;38162;45.926;13.608;2023-02-15T01:33:05;6.10;76.30
52189;DHT22;38162;45.926;13.608;2023-02-15T01:35:31;6.00;76.40
52189;DHT22;38162;45.926;13.608;2023-02-15T01:37:57;5.90;76.60
52189;DHT22;38162;45.926;13.608;2023-02-15T01:40:24;5.90;76.70
52189;DHT22;38162;45.926;13.608;2023-02-15T01:42:54;5.90;76.80
52189;DHT22;38162;45.926;13.608;2023-02-15T01:45:29;5.90;76.90
52189;DHT22;38162;45.926;13.608;2023-02-15T01:48:17;5.90;76.70
52189;DHT22;38162;45.926;13.608;2023-02-15T01:50:58;5.90;76.60
52189;DHT22;38162;45.926;13.608;2023-02-15T01:53:40;5.90;76.60
52189;DHT22;38162;45.926;13.608;2023-02-15T01:56:28;6.00;76.60
52189;DHT22;38162;45.926;13.608;2023-02-15T01:58:56;6.10;76.80
52189;DHT22;38162;45.926;13.608;2023-02-15T02:01:25;6.10;76.80
52189;DHT22;38162;45.926;13.608;2023-02-15T02:06:21;6.30;76.40
52189;DHT22;38162;45.926;13.608;2023-02-15T02:08:46;6.30;75.70
52189;DHT22;38162;45.926;13.608;2023-02-15T02:11:14;6.40;75.40
52189;DHT22;38162;45.926;13.608;2023-02-15T02:13:42;6.40;75.20
52189;DHT22;38162;45.926;13.608;2023-02-15T02:43:51;6.60;74.70
52189;DHT22;38162;45.926;13.608;2023-02-15T02:46:26;6.70;74.50
52189;DHT22;38162;45.926;13.608;2023-02-15T02:48:54;6.80;74.30
52189;DHT22;38162;45.926;13.608;2023-02-15T02:51:20;6.90;74.20
52189;DHT22;38162;45.926;13.608;2023-02-15T02:53:52;6.90;74.00
52189;DHT22;38162;45.926;13.608;2023-02-15T02:56:33;6.90;73.80
52189;DHT22;38162;45.926;13.608;2023-02-15T02:59:25;7.00;73.60
52189;DHT22;38162;45.926;13.608;2023-02-15T03:01:59;7.10;73.30
52189;DHT22;38162;45.926;13.608;2023-02-15T03:04:35;7.10;72.90
52189;DHT22;38162;45.926;13.608;2023-02-15T03:07:05;7.10;72.00
52189;DHT22;38162;45.926;13.608;2023-02-15T03:09:41;7.00;71.30
52189;DHT22;38162;45.926;13.608;2023-02-15T03:12:20;6.90;70.90
52189;DHT22;38162;45.926;13.608;2023-02-15T03:14:50;6.80;71.00
52189;DHT22;38162;45.926;13.608;2023-02-15T03:17:17;6.80;70.80
52189;DHT22;38162;45.926;13.608;2023-02-15T03:19:45;6.80;70.90
52189;DHT22;38162;45.926;13.608;2023-02-15T03:22:25;6.70;70.90
52189;DHT22;38162;45.926;13.608;2023-02-15T03:25:15;6.60;71.20
52189;DHT22;38162;45.926;13.608;2023-02-15T03:27:49;6.50;71.30
52189;DHT22;38162;45.926;13.608;2023-02-15T03:30:18;6.40;71.40
52189;DHT22;38162;45.926;13.608;2023-02-15T03:32:45;6.40;71.60
52189;DHT22;38162;45.926;13.608;2023-02-15T03:35:12;6.30;71.80
52189;DHT22;38162;45.926;13.608;2023-02-15T03:37:41;6.30;72.00
52189;DHT22;38162;45.926;13.608;2023-02-15T03:40:17;6.20;72.10
52189;DHT22;38162;45.926;13.608;2023-02-15T03:45:31;6.10;72.50
52189;DHT22;38162;45.926;13.608;2023-02-15T03:48:00;6.10;72.50
52189;DHT22;38162;45.926;13.608;2023-02-15T03:50:29;6.10;72.60
52189;DHT22;38162;45.926;13.608;2023-02-15T03:53:23;6.00;72.50
52189;DHT22;38162;45.926;13.608;2023-02-15T03:55:54;6.00;72.80
52189;DHT22;38162;45.926;13.608;2023-02-15T03:58:20;5.90;72.90
52189;DHT22;38162;45.926;13.608;2023-02-15T04:01:13;5.90;73.10
52189;DHT22;38162;45.926;13.608;2023-02-15T04:04:05;5.90;73.50
52189;DHT22;38162;45.926;13.608;2023-02-15T04:06:33;6.00;73.30
52189;DHT22;38162;45.926;13.608;2023-02-15T04:08:58;6.00;73.40
52189;DHT22;38162;45.926;13.608;2023-02-15T04:11:42;6.00;73.20
52189;DHT22;38162;45.926;13.608;2023-02-15T04:14:08;6.00;73.50
52189;DHT22;38162;45.926;13.608;2023-02-15T04:17:09;6.00;73.30
52189;DHT22;38162;45.926;13.608;2023-02-15T04:19:35;6.00;73.30
52189;DHT22;38162;45.926;13.608;2023-02-15T04:22:19;6.00;73.40
52189;DHT22;38162;45.926;13.608;2023-02-15T04:25:03;6.00;73.30
52189;DHT22;38162;45.926;13.608;2023-02-15T04:27:40;6.00;73.60
52189;DHT22;38162;45.926;13.608;2023-02-15T04:30:06;6.00;73.80
52189;DHT22;38162;45.926;13.608;2023-02-15T04:32:33;6.00;73.80
52189;DHT22;38162;45.926;13.608;2023-02-15T04:34:59;6.10;73.70
52189;DHT22;38162;45.926;13.608;2023-02-15T04:37:25;6.00;73.70
52189;DHT22;38162;45.926;13.608;2023-02-15T04:39:51;6.00;73.70
52189;DHT22;38162;45.926;13.608;2023-02-15T04:42:16;6.10;73.60
52189;DHT22;38162;45.926;13.608;2023-02-15T04:44:42;6.00;73.60
52189;DHT22;38162;45.926;13.608;2023-02-15T04:47:08;6.10;73.80
52189;DHT22;38162;45.926;13.608;2023-02-15T04:49:34;6.10;73.80
52189;DHT22;38162;45.926;13.608;2023-02-15T04:51:59;6.10;73.80
52189;DHT22;38162;45.926;13.608;2023-02-15T04:54:25;6.10;73.80
52189;DHT22;38162;45.926;13.608;2023-02-15T04:56:51;6.20;73.80
52189;DHT22;38162;45.926;13.608;2023-02-15T04:59:16;6.30;73.70
52189;DHT22;38162;45.926;13.608;2023-02-15T05:01:42;6.40;73.50
52189;DHT22;38162;45.926;13.608;2023-02-15T05:04:08;6.40;73.30
52189;DHT22;38162;45.926;13.608;2023-02-15T05:06:33;6.50;73.20
52189;DHT22;38162;45.926;13.608;2023-02-15T05:08:59;6.50;73.10
52189;DHT22;38162;45.926;13.608;2023-02-15T05:11:25;6.60;73.00
52189;DHT22;38162;45.926;13.608;2023-02-15T05:13:51;6.70;72.90
52189;DHT22;38162;45.926;13.608;2023-02-15T05:16:17;6.70;72.70
52189;DHT22;38162;45.926;13.608;2023-02-15T05:18:43;6.80;72.60
52189;DHT22;38162;45.926;13.608;2023-02-15T05:21:08;6.80;72.40
52189;DHT22;38162;45.926;13.608;2023-02-15T05:23:34;6.80;72.30
52189;DHT22;38162;45.926;13.608;2023-02-15T05:26:00;6.80;72.10
52189;DHT22;38162;45.926;13.608;2023-02-15T05:28:44;6.90;72.00
52189;DHT22;38162;45.926;13.608;2023-02-15T05:31:13;6.90;70.80
52189;DHT22;38162;45.926;13.608;2023-02-15T05:33:40;6.80;69.90
52189;DHT22;38162;45.926;13.608;2023-02-15T05:36:06;6.70;69.90
52189;DHT22;38162;45.926;13.608;2023-02-15T05:38:33;6.60;69.60
52189;DHT22;38162;45.926;13.608;2023-02-15T05:40:59;6.50;69.70
52189;DHT22;38162;45.926;13.608;2023-02-15T05:43:25;6.40;70.00
52189;DHT22;38162;45.926;13.608;2023-02-15T05:45:53;6.40;70.60
52189;DHT22;38162;45.926;13.608;2023-02-15T05:48:21;6.30;70.50
52189;DHT22;38162;45.926;13.608;2023-02-15T05:51:07;6.30;71.20
52189;DHT22;38162;45.926;13.608;2023-02-15T05:53:34;6.30;71.60
52189;DHT22;38162;45.926;13.608;2023-02-15T05:56:01;6.40;72.10
52189;DHT22;38162;45.926;13.608;2023-02-15T05:58:35;6.40;72.30
52189;DHT22;38162;45.926;13.608;2023-02-15T06:03:38;6.50;72.40
52189;DHT22;38162;45.926;13.608;2023-02-15T06:06:03;6.60;72.50
52189;DHT22;38162;45.926;13.608;2023-02-15T06:08:30;6.70;72.40
52189;DHT22;38162;45.926;13.608;2023-02-15T06:10:56;6.70;72.30
52189;DHT22;38162;45.926;13.608;2023-02-15T06:13:22;6.70;72.00
52189;DHT22;38162;45.926;13.608;2023-02-15T06:15:48;6.80;71.40
52189;DHT22;38162;45.926;13.608;2023-02-15T06:18:13;6.70;71.20
52189;DHT22;38162;45.926;13.608;2023-02-15T06:20:39;6.70;70.70
52189;DHT22;38162;45.926;13.608;2023-02-15T06:23:05;6.70;70.30
52189;DHT22;38162;45.926;13.608;2023-02-15T06:25:30;6.60;70.60
52189;DHT22;38162;45.926;13.608;2023-02-15T06:27:56;6.60;70.80
52189;DHT22;38162;45.926;13.608;2023-02-15T06:30:22;6.60;71.30
52189;DHT22;38162;45.926;13.608;2023-02-15T06:32:47;6.60;71.50
52189;DHT22;38162;45.926;13.608;2023-02-15T06:35:13;6.60;71.90
52189;DHT22;38162;45.926;13.608;2023-02-15T06:37:39;6.70;72.10
52189;DHT22;38162;45.926;13.608;2023-02-15T06:40:05;6.70;72.20
52189;DHT22;38162;45.926;13.608;2023-02-15T06:42:31;6.70;72.20
52189;DHT22;38162;45.926;13.608;2023-02-15T06:44:57;6.80;72.10
52189;DHT22;38162;45.926;13.608;2023-02-15T06:47:24;6.80;72.00
52189;DHT22;38162;45.926;13.608;2023-02-15T06:49:50;6.90;72.00
52189;DHT22;38162;45.926;13.608;2023-02-15T06:52:15;6.90;71.80
52189;DHT22;38162;45.926;13.608;2023-02-15T06:54:41;7.00;71.80
52189;DHT22;38162;45.926;13.608;2023-02-15T06:57:06;7.00;71.30
52189;DHT22;38162;45.926;13.608;2023-02-15T06:59:32;7.00;70.30
52189;DHT22;38162;45.926;13.608;2023-02-15T07:01:58;7.00;69.50
52189;DHT22;38162;45.926;13.608;2023-02-15T07:04:23;7.00;69.60
52189;DHT22;38162;45.926;13.608;2023-02-15T07:06:49;6.90;69.90
52189;DHT22;38162;45.926;13.608;2023-02-15T07:09:15;6.80;69.90
52189;DHT22;38162;45.926;13.608;2023-02-15T07:11:41;6.70;70.00
52189;DHT22;38162;45.926;13.608;2023-02-15T07:14:25;6.60;70.40
52189;DHT22;38162;45.926;13.608;2023-02-15T07:16:51;6.60;70.90
52189;DHT22;38162;45.926;13.608;2023-02-15T07:19:17;6.60;70.80
52189;DHT22;38162;45.926;13.608;2023-02-15T07:21:44;6.60;70.80
52189;DHT22;38162;45.926;13.608;2023-02-15T07:24:11;6.70;70.90
52189;DHT22;38162;45.926;13.608;2023-02-15T07:26:36;6.70;71.00
52189;DHT22;38162;45.926;13.608;2023-02-15T07:29:02;6.70;71.30
52189;DHT22;38162;45.926;13.608;2023-02-15T07:31:28;6.80;71.40
52189;DHT22;38162;45.926;13.608;2023-02-15T07:33:53;6.80;71.40
52189;DHT22;38162;45.926;13.608;2023-02-15T07:36:19;6.90;71.50
52189;DHT22;38162;45.926;13.608;2023-02-15T07:38:45;6.90;71.80
52189;DHT22;38162;45.926;13.608;2023-02-15T07:41:13;7.00;72.00
52189;DHT22;38162;45.926;13.608;2023-02-15T07:43:43;7.00;71.80
52189;DHT22;38162;45.926;13.608;2023-02-15T07:46:12;7.10;71.80
52189;DHT22;38162;45.926;13.608;2023-02-15T07:48:39;7.10;72.30
52189;DHT22;38162;45.926;13.608;2023-02-15T07:51:07;7.20;71.80
52189;DHT22;38162;45.926;13.608;2023-02-15T07:53:33;7.20;71.90
52189;DHT22;38162;45.926;13.608;2023-02-15T07:56:04;7.30;71.90
52189;DHT22;38162;45.926;13.608;2023-02-15T07:58:31;7.40;71.70
52189;DHT22;38162;45.926;13.608;2023-02-15T08:01:16;7.40;71.50
52189;DHT22;38162;45.926;13.608;2023-02-15T08:03:42;7.50;71.50
52189;DHT22;38162;45.926;13.608;2023-02-15T08:06:08;7.50;71.50
52189;DHT22;38162;45.926;13.608;2023-02-15T08:08:34;7.60;71.80
52189;DHT22;38162;45.926;13.608;2023-02-15T08:11:07;7.70;72.00
52189;DHT22;38162;45.926;13.608;2023-02-15T08:13:58;7.70;72.50
52189;DHT22;38162;45.926;13.608;2023-02-15T08:16:34;7.80;72.80
52189;DHT22;38162;45.926;13.608;2023-02-15T08:21:39;8.00;73.10
52189;DHT22;38162;45.926;13.608;2023-02-15T08:24:06;8.10;72.80
52189;DHT22;38162;45.926;13.608;2023-02-15T08:26:33;8.20;71.80
52189;DHT22;38162;45.926;13.608;2023-02-15T08:28:59;8.30;71.30
52189;DHT22;38162;45.926;13.608;2023-02-15T08:31:26;8.40;70.80
52189;DHT22;38162;45.926;13.608;2023-02-15T08:33:53;8.50;70.40
52189;DHT22;38162;45.926;13.608;2023-02-15T08:36:21;8.60;70.20
52189;DHT22;38162;45.926;13.608;2023-02-15T08:38:48;8.70;69.70
52189;DHT22;38162;45.926;13.608;2023-02-15T08:41:14;8.80;69.30
52189;DHT22;38162;45.926;13.608;2023-02-15T08:43:41;8.90;69.50
52189;DHT22;38162;45.926;13.608;2023-02-15T08:46:08;9.00;68.90
52189;DHT22;38162;45.926;13.608;2023-02-15T08:48:33;9.10;68.20
52189;DHT22;38162;45.926;13.608;2023-02-15T08:51:05;9.20;67.60
52189;DHT22;38162;45.926;13.608;2023-02-15T08:53:31;9.30;67.40
52189;DHT22;38162;45.926;13.608;2023-02-15T08:55:57;9.40;67.10
52189;DHT22;38162;45.926;13.608;2023-02-15T08:58:23;9.40;67.00
52189;DHT22;38162;45.926;13.608;2023-02-15T09:00:50;9.50;66.60
52189;DHT22;38162;45.926;13.608;2023-02-15T09:03:15;9.60;66.70
52189;DHT22;38162;45.926;13.608;2023-02-15T09:05:41;9.70;66.40
52189;DHT22;38162;45.926;13.608;2023-02-15T09:08:07;9.70;66.10
52189;DHT22;38162;45.926;13.608;2023-02-15T09:10:33;9.80;65.50
52189;DHT22;38162;45.926;13.608;2023-02-15T09:12:58;9.90;65.20
52189;DHT22;38162;45.926;13.608;2023-02-15T09:15:24;10.00;64.90
52189;DHT22;38162;45.926;13.608;2023-02-15T09:17:50;10.00;64.30
52189;DHT22;38162;45.926;13.608;2023-02-15T09:20:15;10.10;63.90
52189;DHT22;38162;45.926;13.608;2023-02-15T09:22:41;10.20;64.00
52189;DHT22;38162;45.926;13.608;2023-02-15T09:25:07;10.20;63.50
52189;DHT22;38162;45.926;13.608;2023-02-15T09:27:32;10.30;63.50
52189;DHT22;38162;45.926;13.608;2023-02-15T09:29:58;10.40;63.30
52189;DHT22;38162;45.926;13.608;2023-02-15T09:32:24;10.50;64.20
52189;DHT22;38162;45.926;13.608;2023-02-15T09:34:50;10.60;64.70
52189;DHT22;38162;45.926;13.608;2023-02-15T09:37:16;10.70;63.60
52189;DHT22;38162;45.926;13.608;2023-02-15T09:39:42;10.80;63.30
52189;DHT22;38162;45.926;13.608;2023-02-15T09:45:12;11.00;62.20
52189;DHT22;38162;45.926;13.608;2023-02-15T10:21:05;12.30;57.90
52189;DHT22;38162;45.926;13.608;2023-02-15T10:26:27;12.50;57.40
52189;DHT22;38162;45.926;13.608;2023-02-15T10:29:33;12.60;57.00
52189;DHT22;38162;45.926;13.608;2023-02-15T10:32:25;12.70;56.50
52189;DHT22;38162;45.926;13.608;2023-02-15T10:45:30;13.10;55.20
52189;DHT22;38162;45.926;13.608;2023-02-15T10:56:01;13.50;53.50
52189;DHT22;38162;45.926;13.608;2023-02-15T10:58:43;13.70;53.70
52189;DHT22;38162;45.926;13.608;2023-02-15T11:01:26;13.80;53.00
52189;DHT22;38162;45.926;13.608;2023-02-15T11:06:19;13.90;51.90
52189;DHT22;38162;45.926;13.608;2023-02-15T11:08:54;14.10;51.60
52189;DHT22;38162;45.926;13.608;2023-02-15T11:11:31;14.20;51.30
52189;DHT22;38162;45.926;13.608;2023-02-15T11:14:17;14.30;51.60
52189;DHT22;38162;45.926;13.608;2023-02-15T11:16:49;14.30;51.40
52189;DHT22;38162;45.926;13.608;2023-02-15T11:19:50;14.50;51.60
52189;DHT22;38162;45.926;13.608;2023-02-15T11:22:10;14.50;51.10
52189;DHT22;38162;45.926;13.608;2023-02-15T11:24:42;14.70;50.80
52189;DHT22;38162;45.926;13.608;2023-02-15T11:30:11;14.90;50.30
52189;DHT22;38162;45.926;13.608;2023-02-15T11:32:45;15.00;49.80
52189;DHT22;38162;45.926;13.608;2023-02-15T11:38:13;15.10;48.90
52189;DHT22;38162;45.926;13.608;2023-02-15T11:40:47;15.20;48.70
52189;DHT22;38162;45.926;13.608;2023-02-15T11:46:03;15.40;47.80
52189;DHT22;38162;45.926;13.608;2023-02-15T11:48:30;15.50;47.30
52189;DHT22;38162;45.926;13.608;2023-02-15T11:50:57;15.60;47.20
52189;DHT22;38162;45.926;13.608;2023-02-15T11:53:23;15.70;47.30
52189;DHT22;38162;45.926;13.608;2023-02-15T11:55:53;15.80;47.20
52189;DHT22;38162;45.926;13.608;2023-02-15T12:00:52;15.90;45.60
52189;DHT22;38162;45.926;13.608;2023-02-15T12:03:24;16.00;45.90
52189;DHT22;38162;45.926;13.608;2023-02-15T12:06:00;16.10;45.50
52189;DHT22;38162;45.926;13.608;2023-02-15T12:08:40;16.20;45.70
52189;DHT22;38162;45.926;13.608;2023-02-15T12:11:19;16.20;45.10
52189;DHT22;38162;45.926;13.608;2023-02-15T12:14:01;16.30;45.20
52189;DHT22;38162;45.926;13.608;2023-02-15T12:16:28;16.30;45.20
52189;DHT22;38162;45.926;13.608;2023-02-15T12:18:59;16.40;44.80
52189;DHT22;38162;45.926;13.608;2023-02-15T12:21:32;16.50;44.30
52189;DHT22;38162;45.926;13.608;2023-02-15T12:24:26;16.60;44.50
52189;DHT22;38162;45.926;13.608;2023-02-15T12:29:29;16.80;44.20
52189;DHT22;38162;45.926;13.608;2023-02-15T12:31:57;16.90;44.10
52189;DHT22;38162;45.926;13.608;2023-02-15T12:34:29;16.90;43.60
52189;DHT22;38162;45.926;13.608;2023-02-15T12:37:00;17.00;43.40
52189;DHT22;38162;45.926;13.608;2023-02-15T12:39:31;17.10;43.50
52189;DHT22;38162;45.926;13.608;2023-02-15T12:42:18;17.20;43.10
52189;DHT22;38162;45.926;13.608;2023-02-15T12:44:59;17.20;43.00
52189;DHT22;38162;45.926;13.608;2023-02-15T12:47:26;17.30;43.10
52189;DHT22;38162;45.926;13.608;2023-02-15T12:50:21;17.40;42.80
52189;DHT22;38162;45.926;13.608;2023-02-15T12:52:49;17.50;42.70
52189;DHT22;38162;45.926;13.608;2023-02-15T12:55:25;17.50;42.70
52189;DHT22;38162;45.926;13.608;2023-02-15T12:58:16;17.50;42.80
52189;DHT22;38162;45.926;13.608;2023-02-15T13:00:43;17.60;43.60
52189;DHT22;38162;45.926;13.608;2023-02-15T13:03:17;17.60;43.80
52189;DHT22;38162;45.926;13.608;2023-02-15T13:05:45;17.70;43.30
52189;DHT22;38162;45.926;13.608;2023-02-15T13:08:18;17.80;43.20
52189;DHT22;38162;45.926;13.608;2023-02-15T13:13:25;17.90;41.80
52189;DHT22;38162;45.926;13.608;2023-02-15T13:15:53;18.00;42.70
52189;DHT22;38162;45.926;13.608;2023-02-15T13:18:45;18.00;42.20
52189;DHT22;38162;45.926;13.608;2023-02-15T13:21:16;18.00;42.20
52189;DHT22;38162;45.926;13.608;2023-02-15T13:23:52;18.10;42.60
52189;DHT22;38162;45.926;13.608;2023-02-15T13:26:22;18.10;42.40
52189;DHT22;38162;45.926;13.608;2023-02-15T13:28:52;18.20;41.80
52189;DHT22;38162;45.926;13.608;2023-02-15T13:31:22;18.20;41.40
52189;DHT22;38162;45.926;13.608;2023-02-15T13:34:09;18.20;42.40
52189;DHT22;38162;45.926;13.608;2023-02-15T13:56:02;18.30;41.10
52189;DHT22;38162;45.926;13.608;2023-02-15T14:22:47;18.00;44.80
52189;DHT22;38162;45.926;13.608;2023-02-15T14:25:38;17.90;45.00
52189;DHT22;38162;45.926;13.608;2023-02-15T14:28:33;18.00;45.10
52189;DHT22;38162;45.926;13.608;2023-02-15T14:31:02;17.90;44.90
52189;DHT22;38162;45.926;13.608;2023-02-15T14:33:34;17.80;44.90
52189;DHT22;38162;45.926;13.608;2023-02-15T14:36:01;17.80;44.80
52189;DHT22;38162;45.926;13.608;2023-02-15T14:44:26;17.50;44.60
52189;DHT22;38162;45.926;13.608;2023-02-15T14:47:09;17.40;44.80
52189;DHT22;38162;45.926;13.608;2023-02-15T14:49:37;17.40;44.80
52189;DHT22;38162;45.926;13.608;2023-02-15T14:52:06;17.30;44.40
52189;DHT22;38162;45.926;13.608;2023-02-15T15:02:43;17.00;46.20
52189;DHT22;38162;45.926;13.608;2023-02-15T15:05:34;16.90;45.90
52189;DHT22;38162;45.926;13.608;2023-02-15T15:08:03;16.80;46.70
52189;DHT22;38162;45.926;13.608;2023-02-15T15:15:56;16.50;47.20
52189;DHT22;38162;45.926;13.608;2023-02-15T15:18:47;16.40;47.50
52189;DHT22;38162;45.926;13.608;2023-02-15T15:27:42;16.20;48.50
52189;DHT22;38162;45.926;13.608;2023-02-15T15:35:36;15.90;50.00
52189;DHT22;38162;45.926;13.608;2023-02-15T15:41:39;15.80;50.80
52189;DHT22;38162;45.926;13.608;2023-02-15T15:49:47;15.50;52.10
52189;DHT22;38162;45.926;13.608;2023-02-15T15:52:18;15.40;52.40
52189;DHT22;38162;45.926;13.608;2023-02-15T15:54:48;15.40;52.80
52189;DHT22;38162;45.926;13.608;2023-02-15T15:57:38;15.30;53.30
52189;DHT22;38162;45.926;13.608;2023-02-15T16:02:51;15.20;53.90
52189;DHT22;38162;45.926;13.608;2023-02-15T16:05:17;15.10;54.10
52189;DHT22;38162;45.926;13.608;2023-02-15T16:07:42;15.00;54.30
52189;DHT22;38162;45.926;13.608;2023-02-15T16:12:47;15.00;54.80
52189;DHT22;38162;45.926;13.608;2023-02-15T16:15:17;14.90;55.00
52189;DHT22;38162;45.926;13.608;2023-02-15T16:17:47;14.90;55.10
52189;DHT22;38162;45.926;13.608;2023-02-15T16:22:40;14.70;55.30
52189;DHT22;38162;45.926;13.608;2023-02-15T16:25:19;14.70;55.60
52189;DHT22;38162;45.926;13.608;2023-02-15T16:27:47;14.60;55.90
52189;DHT22;38162;45.926;13.608;2023-02-15T16:33:03;14.50;56.40
52189;DHT22;38162;45.926;13.608;2023-02-15T16:35:29;14.40;56.60
52189;DHT22;38162;45.926;13.608;2023-02-15T16:37:55;14.30;56.70
52189;DHT22;38162;45.926;13.608;2023-02-15T16:43:00;14.20;56.90
52189;DHT22;38162;45.926;13.608;2023-02-15T16:45:27;14.20;56.90
52189;DHT22;38162;45.926;13.608;2023-02-15T16:47:56;14.10;56.90
52189;DHT22;38162;45.926;13.608;2023-02-15T16:50:28;14.00;57.00
52189;DHT22;38162;45.926;13.608;2023-02-15T16:52:56;13.90;57.00
52189;DHT22;38162;45.926;13.608;2023-02-15T16:55:27;13.90;57.30
52189;DHT22;38162;45.926;13.608;2023-02-15T16:58:04;13.80;57.30
52189;DHT22;38162;45.926;13.608;2023-02-15T17:00:34;13.80;57.40
52189;DHT22;38162;45.926;13.608;2023-02-15T17:03:04;13.70;57.60
52189;DHT22;38162;45.926;13.608;2023-02-15T17:05:54;13.60;57.80
52189;DHT22;38162;45.926;13.608;2023-02-15T17:08:32;13.50;58.10
52189;DHT22;38162;45.926;13.608;2023-02-15T17:13:24;13.40;58.40
52189;DHT22;38162;45.926;13.608;2023-02-15T17:18:29;13.40;58.40
52189;DHT22;38162;45.926;13.608;2023-02-15T17:21:08;13.30;58.60
52189;DHT22;38162;45.926;13.608;2023-02-15T17:23:46;13.20;58.50
52189;DHT22;38162;45.926;13.608;2023-02-15T17:26:18;13.20;58.60
52189;DHT22;38162;45.926;13.608;2023-02-15T17:28:53;13.10;58.70
52189;DHT22;38162;45.926;13.608;2023-02-15T17:31:24;13.00;59.60
52189;DHT22;38162;45.926;13.608;2023-02-15T17:33:51;13.00;59.00
52189;DHT22;38162;45.926;13.608;2023-02-15T17:36:27;12.90;59.40
52189;DHT22;38162;45.926;13.608;2023-02-15T17:41:28;12.80;59.70
52189;DHT22;38162;45.926;13.608;2023-02-15T17:43:54;12.80;59.80
52189;DHT22;38162;45.926;13.608;2023-02-15T17:46:20;12.80;60.00
52189;DHT22;38162;45.926;13.608;2023-02-15T17:48:51;12.70;60.00
52189;DHT22;38162;45.926;13.608;2023-02-15T17:51:18;12.70;60.00
52189;DHT22;38162;45.926;13.608;2023-02-15T17:53:45;12.60;60.10
52189;DHT22;38162;45.926;13.608;2023-02-15T17:56:34;12.50;60.20
52189;DHT22;38162;45.926;13.608;2023-02-15T17:59:00;12.50;60.70
52189;DHT22;38162;45.926;13.608;2023-02-15T18:01:26;12.40;60.80
52189;DHT22;38162;45.926;13.608;2023-02-15T18:04:13;12.40;60.90
52189;DHT22;38162;45.926;13.608;2023-02-15T18:06:57;12.30;61.00
52189;DHT22;38162;45.926;13.608;2023-02-15T18:09:42;12.30;61.10
52189;DHT22;38162;45.926;13.608;2023-02-15T18:12:29;12.20;61.30
52189;DHT22;38162;45.926;13.608;2023-02-15T18:14:56;12.10;61.60
52189;DHT22;38162;45.926;13.608;2023-02-15T18:17:32;12.10;61.60
52189;DHT22;38162;45.926;13.608;2023-02-15T18:19:59;12.00;61.70
52189;DHT22;38162;45.926;13.608;2023-02-15T18:22:27;11.90;61.90
52189;DHT22;38162;45.926;13.608;2023-02-15T18:24:54;11.90;62.10
52189;DHT22;38162;45.926;13.608;2023-02-15T18:27:19;11.80;62.20
52189;DHT22;38162;45.926;13.608;2023-02-15T18:29:45;11.80;62.40
52189;DHT22;38162;45.926;13.608;2023-02-15T18:32:21;11.70;62.10
52189;DHT22;38162;45.926;13.608;2023-02-15T18:34:50;11.60;62.40
52189;DHT22;38162;45.926;13.608;2023-02-15T18:37:19;11.60;62.50
52189;DHT22;38162;45.926;13.608;2023-02-15T18:39:46;11.60;63.40
52189;DHT22;38162;45.926;13.608;2023-02-15T18:42:32;11.50;62.80
52189;DHT22;38162;45.926;13.608;2023-02-15T18:45:14;11.40;63.20
52189;DHT22;38162;45.926;13.608;2023-02-15T18:47:40;11.40;63.50
52189;DHT22;38162;45.926;13.608;2023-02-15T18:50:06;11.30;63.40
52189;DHT22;38162;45.926;13.608;2023-02-15T18:52:35;11.20;63.60
52189;DHT22;38162;45.926;13.608;2023-02-15T18:55:24;11.30;64.00
52189;DHT22;38162;45.926;13.608;2023-02-15T18:57:50;11.20;64.10
52189;DHT22;38162;45.926;13.608;2023-02-15T19:00:17;11.20;64.20
52189;DHT22;38162;45.926;13.608;2023-02-15T19:02:43;11.10;64.30
52189;DHT22;38162;45.926;13.608;2023-02-15T19:05:09;11.10;64.20
52189;DHT22;38162;45.926;13.608;2023-02-15T19:07:35;11.00;64.50
52189;DHT22;38162;45.926;13.608;2023-02-15T19:10:05;10.90;64.80
52189;DHT22;38162;45.926;13.608;2023-02-15T19:12:31;10.90;65.00
52189;DHT22;38162;45.926;13.608;2023-02-15T19:14:57;10.90;65.00
52189;DHT22;38162;45.926;13.608;2023-02-15T19:17:23;10.80;65.10
52189;DHT22;38162;45.926;13.608;2023-02-15T19:19:50;10.70;65.40
52189;DHT22;38162;45.926;13.608;2023-02-15T19:22:24;10.70;65.70
52189;DHT22;38162;45.926;13.608;2023-02-15T19:24:52;10.60;65.80